createdAt,value
2022-11-24T00:00:50.457Z,83.04
2022-11-24T00:03:17.096Z,83.52
2022-11-24T00:05:43.726Z,83.67
2022-11-24T00:08:10.644Z,83.73
2022-11-24T00:10:37.047Z,83.94
2022-11-24T00:13:03.495Z,84.10
2022-11-24T00:15:29.856Z,83.94
2022-11-24T00:17:56.523Z,83.49
2022-11-24T00:20:23.420Z,83.97
2022-11-24T00:22:49.788Z,83.89
2022-11-24T00:25:16.179Z,84.07
2022-11-24T00:27:42.531Z,84.02
2022-11-24T00:30:09.862Z,84.08
2022-11-24T00:32:36.246Z,84.16
2022-11-24T00:35:02.705Z,83.85
2022-11-24T00:37:29.114Z,84.13
2022-11-24T00:39:55.501Z,84.29
2022-11-24T00:42:21.873Z,83.83
2022-11-24T00:44:48.259Z,83.93
2022-11-24T00:47:14.797Z,83.78
2022-11-24T00:49:41.231Z,83.76
2022-11-24T00:52:07.730Z,83.79
2022-11-24T00:54:34.436Z,83.60
2022-11-24T00:57:01.144Z,84.21
2022-11-24T00:59:27.511Z,83.39
2022-11-24T01:01:53.955Z,83.81
2022-11-24T01:04:20.398Z,83.57
2022-11-24T01:06:46.845Z,83.94
2022-11-24T01:09:13.236Z,84.06
2022-11-24T01:11:58.379Z,83.86
2022-11-24T01:14:25.444Z,84.22
2022-11-24T01:16:52.281Z,84.30
2022-11-24T01:19:19.225Z,84.54
2022-11-24T01:21:45.906Z,84.15
2022-11-24T01:24:12.942Z,84.07
2022-11-24T01:26:40.687Z,84.13
2022-11-24T01:29:07.236Z,84.21
2022-11-24T01:31:33.724Z,84.40
2022-11-24T01:34:00.083Z,84.03
2022-11-24T01:36:26.447Z,84.42
2022-11-24T01:38:52.865Z,83.98
2022-11-24T01:41:22.603Z,84.00
2022-11-24T01:43:50.348Z,84.01
2022-11-24T01:46:29.898Z,84.40
2022-11-24T01:49:00.652Z,83.52
2022-11-24T01:51:30.413Z,84.51
2022-11-24T01:54:11.180Z,84.31
2022-11-24T01:56:41.086Z,84.31
2022-11-24T01:59:11.999Z,84.05
2022-11-24T02:01:38.464Z,84.14
2022-11-24T02:04:10.937Z,83.99
2022-11-24T02:06:40.039Z,84.23
2022-11-24T02:09:30.552Z,83.88
2022-11-24T02:11:59.506Z,84.21
2022-11-24T02:14:27.296Z,84.11
2022-11-24T02:16:54.055Z,84.25
2022-11-24T02:19:29.236Z,84.17
2022-11-24T02:21:55.672Z,83.88
2022-11-24T02:24:29.579Z,84.29
2022-11-24T02:26:56.019Z,84.49
2022-11-24T02:29:22.543Z,84.43
2022-11-24T02:31:55.089Z,84.39
2022-11-24T02:34:21.529Z,85.06
2022-11-24T02:36:47.922Z,84.67
2022-11-24T02:39:16.178Z,84.70
2022-11-24T02:41:46.124Z,84.81
2022-11-24T02:44:15.511Z,84.63
2022-11-24T02:46:42.079Z,84.77
2022-11-24T02:49:08.570Z,84.42
2022-11-24T02:51:35.015Z,84.76
2022-11-24T02:54:01.517Z,84.57
2022-11-24T02:56:27.890Z,84.77
2022-11-24T02:58:54.243Z,84.34
2022-11-24T03:01:20.720Z,84.92
2022-11-24T03:03:48.400Z,85.36
2022-11-24T03:06:14.827Z,84.99
2022-11-24T03:08:41.226Z,85.14
2022-11-24T03:11:07.579Z,85.25
2022-11-24T03:13:35.247Z,85.38
2022-11-24T03:16:01.927Z,85.03
2022-11-24T03:18:28.414Z,85.63
2022-11-24T03:20:59.487Z,85.08
2022-11-24T03:23:26.207Z,85.53
2022-11-24T03:25:52.552Z,85.30
2022-11-24T03:28:18.913Z,85.45
2022-11-24T03:30:49.027Z,85.22
2022-11-24T03:33:15.496Z,85.41
2022-11-24T03:35:42.244Z,85.63
2022-11-24T03:38:08.596Z,85.59
2022-11-24T03:40:35.061Z,85.47
2022-11-24T03:43:01.480Z,85.46
2022-11-24T03:45:45.415Z,85.69
2022-11-24T03:48:13.491Z,85.87
2022-11-24T03:50:39.997Z,85.77
2022-11-24T03:53:06.377Z,85.29
2022-11-24T03:55:32.851Z,85.52
2022-11-24T03:57:59.323Z,85.12
2022-11-24T04:00:26.241Z,85.28
2022-11-24T04:02:52.656Z,85.72
2022-11-24T04:05:19.130Z,85.58
2022-11-24T04:07:45.630Z,85.24
2022-11-24T04:10:12.032Z,85.52
2022-11-24T04:12:44.420Z,85.77
2022-11-24T04:15:15.690Z,85.26
2022-11-24T04:17:42.413Z,85.40
2022-11-24T04:20:10.361Z,85.09
2022-11-24T04:22:37.337Z,85.42
2022-11-24T04:25:04.422Z,85.62
2022-11-24T04:27:32.780Z,85.74
2022-11-24T04:29:59.349Z,85.57
2022-11-24T04:32:25.716Z,85.33
2022-11-24T04:34:52.113Z,85.26
2022-11-24T04:37:18.697Z,85.71
2022-11-24T04:39:46.218Z,85.42
2022-11-24T04:42:13.268Z,85.19
2022-11-24T04:44:40.061Z,85.42
2022-11-24T04:47:06.751Z,85.42
2022-11-24T04:49:33.215Z,85.00
2022-11-24T04:51:59.597Z,85.54
2022-11-24T04:54:25.992Z,85.67
2022-11-24T04:56:52.692Z,85.58
2022-11-24T04:59:19.769Z,85.51
2022-11-24T05:01:46.844Z,85.28
2022-11-24T05:04:15.530Z,85.61
2022-11-24T05:06:42.406Z,85.56
2022-11-24T05:09:13.412Z,85.66
2022-11-24T05:11:39.818Z,85.85
2022-11-24T05:14:06.204Z,85.96
2022-11-24T05:16:32.700Z,85.74
2022-11-24T05:18:59.187Z,85.89
2022-11-24T05:21:25.795Z,85.96
2022-11-24T05:23:52.116Z,85.79
2022-11-24T05:26:18.490Z,85.52
2022-11-24T05:28:45.246Z,85.82
2022-11-24T05:31:11.729Z,85.83
2022-11-24T05:33:38.261Z,85.49
2022-11-24T05:36:06.526Z,86.15
2022-11-24T05:38:33.818Z,86.17
2022-11-24T05:41:05.128Z,86.01
2022-11-24T05:43:32.007Z,85.87
2022-11-24T05:46:01.864Z,85.76
2022-11-24T05:48:28.352Z,85.72
2022-11-24T05:50:58.499Z,85.46
2022-11-24T05:53:26.860Z,86.12
2022-11-24T05:55:53.309Z,85.42
2022-11-24T05:58:19.846Z,85.58
2022-11-24T06:00:46.461Z,85.89
2022-11-24T06:03:13.078Z,85.52
2022-11-24T06:05:39.598Z,85.38
2022-11-24T06:08:06.121Z,85.79
2022-11-24T06:10:32.547Z,85.55
2022-11-24T06:12:59.017Z,85.43
2022-11-24T06:15:25.406Z,85.85
2022-11-24T06:17:55.979Z,86.02
2022-11-24T06:20:28.348Z,85.75
2022-11-24T06:22:59.155Z,85.91
2022-11-24T06:25:26.256Z,86.00
2022-11-24T06:27:52.734Z,85.56
2022-11-24T06:30:19.323Z,86.00
2022-11-24T06:32:49.454Z,85.43
2022-11-24T06:35:16.847Z,85.83
2022-11-24T06:37:43.279Z,85.89
2022-11-24T06:40:10.215Z,85.70
2022-11-24T06:42:37.484Z,85.65
2022-11-24T06:45:08.782Z,85.95
2022-11-24T06:47:35.998Z,85.51
2022-11-24T06:50:02.709Z,85.53
2022-11-24T06:52:29.191Z,85.25
2022-11-24T06:54:55.737Z,85.28
2022-11-24T06:57:22.170Z,85.44
2022-11-24T06:59:48.715Z,84.77
2022-11-24T07:02:15.280Z,84.92
2022-11-24T07:04:41.674Z,85.32
2022-11-24T07:07:08.145Z,85.24
2022-11-24T07:09:34.620Z,85.22
2022-11-24T07:12:02.281Z,85.73
2022-11-24T07:14:28.676Z,85.19
2022-11-24T07:16:55.114Z,84.91
2022-11-24T07:19:24.902Z,85.45
2022-11-24T07:21:51.541Z,85.22
2022-11-24T07:24:17.978Z,85.07
2022-11-24T07:26:44.752Z,85.13
2022-11-24T07:29:11.133Z,85.25
2022-11-24T07:31:37.889Z,85.21
2022-11-24T07:34:04.397Z,85.25
2022-11-24T07:36:30.924Z,84.97
2022-11-24T07:38:57.670Z,85.36
2022-11-24T07:41:24.211Z,85.27
2022-11-24T07:43:51.544Z,85.93
2022-11-24T07:46:19.430Z,85.79
2022-11-24T07:48:46.878Z,85.61
2022-11-24T07:51:13.367Z,85.57
2022-11-24T07:53:39.989Z,85.53
2022-11-24T07:56:07.116Z,85.37
2022-11-24T07:58:36.021Z,84.87
2022-11-24T08:01:13.241Z,85.31
2022-11-24T08:03:40.434Z,85.61
2022-11-24T08:06:24.008Z,85.44
2022-11-24T08:08:52.851Z,85.28
2022-11-24T08:11:19.377Z,85.73
2022-11-24T08:13:45.943Z,85.86
2022-11-24T08:16:15.074Z,85.67
2022-11-24T08:18:42.890Z,85.65
2022-11-24T08:21:14.236Z,85.41
2022-11-24T08:23:41.573Z,85.73
2022-11-24T08:26:13.856Z,85.72
2022-11-24T08:28:40.318Z,85.68
2022-11-24T08:31:09.624Z,86.14
2022-11-24T08:33:37.147Z,85.84
2022-11-24T08:36:08.843Z,85.86
2022-11-24T08:38:35.361Z,85.91
2022-11-24T08:41:03.779Z,85.25
2022-11-24T08:43:30.757Z,86.33
2022-11-24T08:46:06.289Z,85.48
2022-11-24T08:48:33.919Z,85.66
2022-11-24T08:51:07.753Z,85.85
2022-11-24T08:53:34.422Z,85.79
2022-11-24T08:56:01.443Z,85.77
2022-11-24T08:58:30.999Z,86.07
2022-11-24T09:01:13.828Z,85.59
2022-11-24T09:03:46.590Z,85.89
2022-11-24T09:06:15.712Z,85.75
2022-11-24T09:08:42.274Z,86.28
2022-11-24T09:11:13.830Z,85.99
2022-11-24T09:13:41.163Z,86.06
2022-11-24T09:16:11.185Z,86.31
2022-11-24T09:18:38.455Z,85.88
2022-11-24T09:21:21.692Z,85.59
2022-11-24T09:23:50.728Z,85.46
2022-11-24T09:26:23.020Z,85.58
2022-11-24T09:28:50.324Z,85.33
2022-11-24T09:31:17.988Z,85.50
2022-11-24T09:33:45.031Z,85.39
2022-11-24T09:36:11.448Z,85.24
2022-11-24T09:38:38.066Z,85.15
2022-11-24T09:41:43.389Z,85.70
2022-11-24T09:44:54.549Z,85.35
2022-11-24T09:47:42.492Z,85.70
2022-11-24T09:50:18.359Z,85.15
2022-11-24T09:53:00.996Z,85.27
2022-11-24T09:55:33.536Z,85.06
2022-11-24T09:58:38.457Z,85.05
2022-11-24T10:01:26.203Z,85.29
2022-11-24T10:03:54.292Z,85.13
2022-11-24T10:06:26.346Z,85.14
2022-11-24T10:09:07.908Z,85.21
2022-11-24T10:12:02.339Z,85.69
2022-11-24T10:14:41.754Z,84.97
2022-11-24T10:17:53.069Z,84.60
2022-11-24T10:20:27.832Z,84.21
2022-11-24T10:23:17.191Z,84.26
2022-11-24T10:26:16.206Z,84.19
2022-11-24T10:28:55.105Z,84.25
2022-11-24T10:31:45.721Z,83.98
2022-11-24T10:34:25.576Z,83.55
2022-11-24T10:36:58.087Z,84.82
2022-11-24T10:39:39.885Z,84.09
2022-11-24T10:42:18.198Z,84.27
2022-11-24T10:44:44.708Z,84.04
2022-11-24T10:47:34.401Z,83.59
2022-11-24T10:50:26.434Z,84.28
2022-11-24T10:53:18.475Z,83.34
2022-11-24T10:55:56.810Z,83.15
2022-11-24T10:58:37.719Z,83.96
2022-11-24T11:01:13.713Z,83.85
2022-11-24T11:03:59.969Z,82.97
2022-11-24T11:06:36.258Z,82.92
2022-11-24T11:09:08.396Z,83.69
2022-11-24T11:11:36.339Z,83.78
2022-11-24T11:14:05.853Z,83.73
2022-11-24T11:16:38.064Z,82.95
2022-11-24T11:19:47.740Z,83.36
2022-11-24T11:22:12.050Z,83.18
2022-11-24T11:24:43.347Z,83.18
2022-11-24T11:27:30.044Z,83.90
2022-11-24T11:36:11.155Z,82.67
2022-11-24T11:38:39.145Z,82.33
2022-11-24T11:41:10.734Z,82.59
2022-11-24T11:43:41.010Z,81.97
2022-11-24T11:46:18.207Z,81.78
2022-11-24T11:48:46.839Z,82.07
2022-11-24T11:51:24.479Z,83.06
2022-11-24T11:54:38.577Z,82.06
2022-11-24T11:57:13.237Z,82.31
2022-11-24T11:59:42.174Z,82.04
2022-11-24T12:02:51.548Z,81.40
2022-11-24T12:05:49.855Z,82.36
2022-11-24T12:09:17.795Z,81.88
2022-11-24T12:11:43.607Z,81.21
2022-11-24T12:14:18.936Z,81.68
2022-11-24T12:17:22.620Z,82.29
2022-11-24T12:20:03.772Z,82.09
2022-11-24T12:22:39.210Z,81.25
2022-11-24T12:25:30.213Z,81.09
2022-11-24T12:28:18.200Z,80.95
2022-11-24T12:31:09.371Z,81.83
2022-11-24T12:34:14.660Z,81.99
2022-11-24T12:36:57.850Z,81.77
2022-11-24T12:39:52.838Z,81.76
2022-11-24T12:42:40.898Z,80.61
2022-11-24T12:45:14.330Z,81.20
2022-11-24T12:48:07.135Z,80.41
2022-11-24T12:50:38.998Z,81.13
2022-11-24T12:53:25.419Z,80.73
2022-11-24T12:55:53.116Z,80.87
2022-11-24T12:58:41.338Z,80.03
2022-11-24T13:01:18.436Z,79.84
2022-11-24T13:04:03.169Z,80.87
2022-11-24T13:06:39.722Z,80.59
2022-11-24T13:09:09.379Z,79.53
2022-11-24T13:11:41.908Z,80.44
2022-11-24T13:14:30.452Z,78.49
2022-11-24T13:17:28.485Z,78.45
2022-11-24T13:19:46.126Z,77.43
2022-11-24T13:22:24.210Z,77.15
2022-11-24T13:25:28.676Z,77.61
2022-11-24T13:28:00.188Z,77.14
2022-11-24T13:30:35.674Z,77.46
2022-11-24T13:33:16.014Z,76.54
2022-11-24T13:36:04.006Z,76.57
2022-11-24T13:38:45.686Z,76.81
2022-11-24T13:41:32.270Z,78.08
2022-11-24T13:44:17.151Z,77.26
2022-11-24T13:47:06.244Z,76.58
2022-11-24T13:49:41.206Z,76.86
2022-11-24T13:52:38.727Z,77.54
2022-11-24T13:55:11.765Z,76.46
2022-11-24T13:57:41.461Z,77.73
2022-11-24T14:00:32.264Z,77.31
2022-11-24T14:03:36.262Z,76.88
2022-11-24T14:06:03.888Z,76.54
2022-11-24T14:08:37.641Z,76.55
2022-11-24T14:11:13.135Z,75.62
2022-11-24T14:13:39.546Z,76.51
2022-11-24T14:16:06.091Z,75.51
2022-11-24T14:18:34.261Z,75.47
2022-11-24T14:21:16.586Z,75.47
2022-11-24T14:23:50.958Z,76.65
2022-11-24T14:26:20.537Z,76.21
2022-11-24T14:28:47.865Z,75.89
2022-11-24T14:31:25.097Z,75.31
2022-11-24T14:34:12.737Z,75.25
2022-11-24T14:36:39.855Z,76.41
2022-11-24T14:39:11.026Z,75.42
2022-11-24T14:41:37.501Z,75.85
2022-11-24T14:44:28.541Z,76.25
2022-11-24T14:47:14.920Z,75.84
2022-11-24T14:49:43.209Z,76.17
2022-11-24T14:52:14.309Z,75.34
2022-11-24T14:54:50.858Z,75.87
2022-11-24T14:57:24.917Z,75.78
2022-11-24T15:00:08.891Z,75.78
2022-11-24T15:02:46.243Z,75.86
2022-11-24T15:05:12.993Z,75.43
2022-11-24T15:07:43.419Z,74.81
2022-11-24T15:10:36.179Z,75.54
2022-11-24T15:13:15.290Z,75.11
2022-11-24T15:15:49.396Z,75.21
2022-11-24T15:18:46.770Z,75.22
2022-11-24T15:21:18.904Z,74.34
2022-11-24T15:24:06.342Z,75.00
2022-11-24T15:26:38.248Z,74.61
2022-11-24T15:29:07.991Z,74.72
2022-11-24T15:31:34.452Z,75.45
2022-11-24T15:34:00.960Z,75.51
2022-11-24T15:36:27.420Z,75.75
2022-11-24T15:38:53.774Z,75.49
2022-11-24T15:41:22.194Z,75.70
2022-11-24T15:43:48.652Z,75.53
2022-11-24T15:46:15.953Z,76.17
2022-11-24T15:48:42.426Z,75.97
2022-11-24T15:51:13.446Z,76.04
2022-11-24T15:53:44.188Z,75.32
2022-11-24T15:56:33.015Z,75.31
2022-11-24T15:59:00.192Z,75.21
2022-11-24T16:01:30.267Z,75.91
2022-11-24T16:03:56.829Z,76.10
2022-11-24T16:06:25.046Z,75.90
2022-11-24T16:08:52.845Z,76.01
2022-11-24T16:11:20.564Z,75.93
2022-11-24T16:13:51.814Z,76.21
2022-11-24T16:16:19.879Z,76.36
2022-11-24T16:18:46.453Z,76.38
2022-11-24T16:21:12.903Z,76.03
2022-11-24T16:23:39.350Z,76.39
2022-11-24T16:26:06.464Z,76.45
2022-11-24T16:28:33.201Z,76.81
2022-11-24T16:30:59.613Z,76.47
2022-11-24T16:33:26.047Z,76.39
2022-11-24T16:35:52.481Z,77.15
2022-11-24T16:38:20.014Z,77.10
2022-11-24T16:40:54.463Z,77.42
2022-11-24T16:43:20.931Z,77.76
2022-11-24T16:46:03.172Z,77.38
2022-11-24T16:48:46.154Z,77.67
2022-11-24T16:51:14.442Z,78.30
2022-11-24T16:53:42.791Z,78.00
2022-11-24T16:56:11.107Z,78.54
2022-11-24T16:58:43.697Z,78.30
2022-11-24T17:03:51.887Z,78.63
2022-11-24T17:06:19.101Z,78.67
2022-11-24T17:08:46.965Z,78.70
2022-11-24T17:11:16.081Z,78.33
2022-11-24T17:13:43.484Z,78.42
2022-11-24T17:16:12.227Z,78.45
2022-11-24T17:18:39.127Z,78.76
2022-11-24T17:21:09.735Z,78.73
2022-11-24T17:23:37.029Z,79.23
2022-11-24T17:26:21.762Z,78.75
2022-11-24T17:28:48.179Z,78.74
2022-11-24T17:31:23.001Z,79.40
2022-11-24T17:33:54.498Z,79.35
2022-11-24T17:36:22.154Z,79.44
2022-11-24T17:38:49.555Z,79.44
2022-11-24T17:41:19.865Z,79.86
2022-11-24T17:43:50.814Z,79.71
2022-11-24T17:46:17.480Z,79.39
2022-11-24T17:48:43.946Z,79.96
2022-11-24T17:51:16.089Z,80.06
2022-11-24T17:53:43.659Z,79.91
2022-11-24T17:56:15.024Z,79.72
2022-11-24T17:58:43.352Z,79.37
2022-11-24T18:01:11.202Z,80.04
2022-11-24T18:03:41.513Z,79.95
2022-11-24T18:06:10.342Z,80.33
2022-11-24T18:08:38.486Z,80.41
2022-11-24T18:11:09.243Z,80.10
2022-11-24T18:13:55.815Z,80.59
2022-11-24T18:16:24.286Z,80.33
2022-11-24T18:19:07.363Z,80.15
2022-11-24T18:21:35.227Z,80.72
2022-11-24T18:24:01.987Z,80.69
2022-11-24T18:26:28.638Z,80.38
2022-11-24T18:28:55.021Z,80.65
2022-11-24T18:31:22.568Z,80.82
2022-11-24T18:33:49.163Z,80.26
2022-11-24T18:36:18.464Z,80.88
2022-11-24T18:38:45.427Z,80.64
2022-11-24T18:41:13.603Z,81.05
2022-11-24T18:43:40.285Z,80.90
2022-11-24T18:46:08.319Z,80.76
2022-11-24T18:48:34.965Z,80.73
2022-11-24T18:51:01.863Z,80.84
2022-11-24T18:53:29.301Z,80.59
2022-11-24T18:55:58.813Z,80.60
2022-11-24T18:58:27.049Z,80.56
2022-11-24T19:00:55.173Z,80.43
2022-11-24T19:03:21.581Z,81.47
2022-11-24T19:05:47.998Z,80.77
2022-11-24T19:08:14.427Z,80.86
2022-11-24T19:10:41.941Z,81.02
2022-11-24T19:13:08.380Z,81.51
2022-11-24T19:15:35.426Z,81.54
2022-11-24T19:18:02.137Z,81.54
2022-11-24T19:20:28.878Z,81.84
2022-11-24T19:22:55.367Z,81.68
2022-11-24T19:25:21.779Z,81.56
2022-11-24T19:27:48.273Z,81.35
2022-11-24T19:30:16.619Z,82.00
2022-11-24T19:32:43.090Z,81.70
2022-11-24T19:35:10.092Z,82.01
2022-11-24T19:37:37.255Z,82.00
2022-11-24T19:40:04.499Z,81.98
2022-11-24T19:42:31.003Z,81.86
2022-11-24T19:44:57.374Z,82.11
2022-11-24T19:47:23.765Z,82.14
2022-11-24T19:49:50.284Z,82.43
2022-11-24T19:52:16.661Z,82.36
2022-11-24T19:54:43.209Z,82.23
2022-11-24T19:57:09.735Z,82.14
2022-11-24T19:59:36.128Z,82.49
2022-11-24T20:02:02.787Z,82.53
2022-11-24T20:04:29.601Z,82.37
2022-11-24T20:06:56.042Z,82.26
2022-11-24T20:09:22.437Z,82.14
2022-11-24T20:11:49.116Z,82.30
2022-11-24T20:14:26.118Z,82.50
2022-11-24T20:16:52.716Z,82.98
2022-11-24T20:19:19.187Z,82.69
2022-11-24T20:21:47.780Z,82.63
2022-11-24T20:24:19.329Z,82.50
2022-11-24T20:26:52.007Z,82.67
2022-11-24T20:29:19.173Z,82.54
2022-11-24T20:31:48.728Z,82.76
2022-11-24T20:34:15.981Z,82.65
2022-11-24T20:36:44.381Z,82.64
2022-11-24T20:39:34.004Z,82.93
2022-11-24T20:42:00.357Z,82.74
2022-11-24T20:44:27.642Z,83.23
2022-11-24T20:46:56.659Z,83.04
2022-11-24T20:49:23.189Z,83.00
2022-11-24T20:51:54.198Z,82.91
2022-11-24T20:54:21.553Z,83.20
2022-11-24T20:56:48.457Z,83.33
2022-11-24T20:59:18.184Z,83.41
2022-11-24T21:01:46.448Z,83.30
2022-11-24T21:04:16.958Z,83.43
2022-11-24T21:06:43.448Z,83.54
2022-11-24T21:09:10.465Z,83.44
2022-11-24T21:11:38.039Z,83.69
2022-11-24T21:14:05.404Z,83.85
2022-11-24T21:16:34.724Z,83.49
2022-11-24T21:19:04.300Z,83.58
2022-11-24T21:21:34.578Z,83.62
2022-11-24T21:24:06.815Z,83.54
2022-11-24T21:26:37.188Z,83.69
2022-11-24T21:29:04.233Z,83.79
2022-11-24T21:31:30.720Z,83.71
2022-11-24T21:33:57.163Z,84.08
2022-11-24T21:36:25.571Z,83.76
2022-11-24T21:39:02.455Z,83.90
2022-11-24T21:41:32.523Z,84.07
2022-11-24T21:43:59.042Z,84.21
2022-11-24T21:46:25.662Z,84.06
2022-11-24T21:48:52.097Z,84.38
2022-11-24T21:51:20.311Z,84.37
2022-11-24T21:53:47.566Z,84.27
2022-11-24T21:56:16.941Z,84.29
2022-11-24T21:58:45.620Z,84.44
2022-11-24T22:01:12.421Z,84.34
2022-11-24T22:03:38.830Z,84.84
2022-11-24T22:06:05.618Z,84.59
2022-11-24T22:08:32.500Z,84.62
2022-11-24T22:11:04.399Z,84.04
2022-11-24T22:13:31.153Z,84.19
2022-11-24T22:16:05.301Z,84.68
2022-11-24T22:18:34.038Z,84.31
2022-11-24T22:21:02.770Z,84.63
2022-11-24T22:23:33.501Z,84.64
2022-11-24T22:26:10.014Z,84.76
2022-11-24T22:28:36.825Z,84.64
2022-11-24T22:31:13.231Z,84.60
2022-11-24T22:33:40.108Z,84.48
2022-11-24T22:36:07.374Z,84.97
2022-11-24T22:38:34.279Z,84.76
2022-11-24T22:41:06.247Z,84.90
2022-11-24T22:43:34.186Z,84.73
2022-11-24T22:46:26.048Z,84.73
2022-11-24T22:48:54.006Z,85.33
2022-11-24T22:51:26.429Z,84.93
2022-11-24T22:53:56.159Z,84.99
2022-11-24T22:56:23.740Z,84.88
2022-11-24T22:58:50.842Z,85.06
2022-11-24T23:01:22.641Z,85.33
2022-11-24T23:03:50.106Z,85.38
2022-11-24T23:06:22.459Z,85.13
2022-11-24T23:08:49.703Z,85.05
2022-11-24T23:11:24.662Z,85.29
2022-11-24T23:13:58.483Z,85.13
2022-11-24T23:16:24.991Z,85.31
2022-11-24T23:18:54.065Z,85.43
2022-11-24T23:21:30.708Z,85.27
2022-11-24T23:23:59.325Z,85.30
2022-11-24T23:26:32.360Z,85.06
2022-11-24T23:28:58.847Z,85.35
2022-11-24T23:31:30.267Z,85.30
2022-11-24T23:34:01.901Z,85.60
2022-11-24T23:36:29.291Z,85.17
2022-11-24T23:38:55.897Z,85.53
2022-11-24T23:41:24.958Z,85.39
2022-11-24T23:43:52.437Z,85.53
2022-11-24T23:46:21.373Z,85.43
2022-11-24T23:48:49.235Z,85.77
2022-11-24T23:51:18.860Z,85.47
2022-11-24T23:53:45.712Z,85.66
2022-11-24T23:56:14.935Z,85.74
2022-11-24T23:58:41.779Z,85.68
